sensor_id;sensor_type;location;lat;lon;timestamp;P1;durP1;ratioP1;P2;durP2;ratioP2
12593;SDS011;6362;50.208;9.182;2022-08-11T00:00:07;7.00;;;2.50;;
12593;SDS011;6362;50.208;9.182;2022-08-11T00:02:39;6.93;;;3.38;;
12593;SDS011;6362;50.208;9.182;2022-08-11T00:05:08;5.13;;;2.97;;
12593;SDS011;6362;50.208;9.182;2022-08-11T00:07:55;4.18;;;2.65;;
12593;SDS011;6362;50.208;9.182;2022-08-11T00:10:23;5.50;;;3.17;;
12593;SDS011;6362;50.208;9.182;2022-08-11T00:12:52;5.45;;;2.85;;
12593;SDS011;6362;50.208;9.182;2022-08-11T00:15:21;5.75;;;2.67;;
12593;SDS011;6362;50.208;9.182;2022-08-11T00:17:47;5.30;;;2.88;;
12593;SDS011;6362;50.208;9.182;2022-08-11T00:20:14;6.70;;;2.92;;
12593;SDS011;6362;50.208;9.182;2022-08-11T00:22:42;6.22;;;2.47;;
12593;SDS011;6362;50.208;9.182;2022-08-11T00:25:14;5.25;;;2.85;;
12593;SDS011;6362;50.208;9.182;2022-08-11T00:27:46;3.83;;;2.63;;
12593;SDS011;6362;50.208;9.182;2022-08-11T00:30:12;6.05;;;2.70;;
12593;SDS011;6362;50.208;9.182;2022-08-11T00:32:42;4.85;;;3.08;;
12593;SDS011;6362;50.208;9.182;2022-08-11T00:35:11;5.03;;;2.65;;
12593;SDS011;6362;50.208;9.182;2022-08-11T00:37:43;4.28;;;2.53;;
12593;SDS011;6362;50.208;9.182;2022-08-11T00:40:14;7.20;;;2.50;;
12593;SDS011;6362;50.208;9.182;2022-08-11T00:42:52;6.18;;;2.60;;
12593;SDS011;6362;50.208;9.182;2022-08-11T00:45:41;5.13;;;2.75;;
12593;SDS011;6362;50.208;9.182;2022-08-11T01:02:17;5.90;;;2.75;;
12593;SDS011;6362;50.208;9.182;2022-08-11T01:47:38;4.85;;;2.65;;
12593;SDS011;6362;50.208;9.182;2022-08-11T01:56:00;5.72;;;2.60;;
12593;SDS011;6362;50.208;9.182;2022-08-11T01:58:40;3.55;;;2.40;;
12593;SDS011;6362;50.208;9.182;2022-08-11T02:03:54;6.30;;;2.70;;
12593;SDS011;6362;50.208;9.182;2022-08-11T02:20:15;4.00;;;2.60;;
12593;SDS011;6362;50.208;9.182;2022-08-11T02:26:09;3.75;;;2.42;;
12593;SDS011;6362;50.208;9.182;2022-08-11T02:31:40;7.03;;;2.75;;
12593;SDS011;6362;50.208;9.182;2022-08-11T02:42:29;6.50;;;2.78;;
12593;SDS011;6362;50.208;9.182;2022-08-11T02:51:13;5.80;;;2.45;;
12593;SDS011;6362;50.208;9.182;2022-08-11T02:59:39;4.70;;;3.15;;
12593;SDS011;6362;50.208;9.182;2022-08-11T03:05:11;4.60;;;2.72;;
12593;SDS011;6362;50.208;9.182;2022-08-11T03:07:50;5.78;;;2.38;;
12593;SDS011;6362;50.208;9.182;2022-08-11T03:13:55;5.60;;;2.78;;
12593;SDS011;6362;50.208;9.182;2022-08-11T03:16:57;4.50;;;2.80;;
12593;SDS011;6362;50.208;9.182;2022-08-11T03:19:48;5.13;;;2.55;;
12593;SDS011;6362;50.208;9.182;2022-08-11T03:22:39;8.60;;;3.03;;
12593;SDS011;6362;50.208;9.182;2022-08-11T03:25:46;4.32;;;2.83;;
12593;SDS011;6362;50.208;9.182;2022-08-11T03:34:08;6.43;;;3.10;;
12593;SDS011;6362;50.208;9.182;2022-08-11T03:50:06;3.83;;;2.80;;
12593;SDS011;6362;50.208;9.182;2022-08-11T04:01:22;5.43;;;3.13;;
12593;SDS011;6362;50.208;9.182;2022-08-11T04:10:10;4.95;;;3.08;;
12593;SDS011;6362;50.208;9.182;2022-08-11T04:13:18;4.70;;;2.80;;
12593;SDS011;6362;50.208;9.182;2022-08-11T04:30:00;6.95;;;2.58;;
12593;SDS011;6362;50.208;9.182;2022-08-11T04:44:14;5.60;;;3.08;;
12593;SDS011;6362;50.208;9.182;2022-08-11T05:04:20;7.78;;;2.78;;
12593;SDS011;6362;50.208;9.182;2022-08-11T05:13:06;7.47;;;3.03;;
12593;SDS011;6362;50.208;9.182;2022-08-11T05:18:52;7.03;;;2.92;;
12593;SDS011;6362;50.208;9.182;2022-08-11T05:21:38;7.05;;;3.10;;
12593;SDS011;6362;50.208;9.182;2022-08-11T05:24:29;6.88;;;2.70;;
12593;SDS011;6362;50.208;9.182;2022-08-11T05:27:31;7.82;;;3.35;;
12593;SDS011;6362;50.208;9.182;2022-08-11T05:30:24;8.88;;;3.38;;
12593;SDS011;6362;50.208;9.182;2022-08-11T05:33:24;6.70;;;2.70;;
12593;SDS011;6362;50.208;9.182;2022-08-11T05:36:18;6.43;;;2.95;;
12593;SDS011;6362;50.208;9.182;2022-08-11T05:38:55;5.63;;;2.75;;
12593;SDS011;6362;50.208;9.182;2022-08-11T05:41:41;5.68;;;2.88;;
12593;SDS011;6362;50.208;9.182;2022-08-11T05:44:26;6.30;;;2.95;;
12593;SDS011;6362;50.208;9.182;2022-08-11T05:47:25;6.63;;;2.90;;
12593;SDS011;6362;50.208;9.182;2022-08-11T05:50:10;4.68;;;2.58;;
12593;SDS011;6362;50.208;9.182;2022-08-11T05:52:56;6.47;;;3.08;;
12593;SDS011;6362;50.208;9.182;2022-08-11T05:55:42;4.82;;;2.80;;
12593;SDS011;6362;50.208;9.182;2022-08-11T05:58:34;6.30;;;2.50;;
12593;SDS011;6362;50.208;9.182;2022-08-11T06:01:03;5.63;;;2.65;;
12593;SDS011;6362;50.208;9.182;2022-08-11T06:03:29;8.40;;;3.08;;
12593;SDS011;6362;50.208;9.182;2022-08-11T06:06:17;7.00;;;2.60;;
12593;SDS011;6362;50.208;9.182;2022-08-11T06:08:45;6.80;;;2.78;;
12593;SDS011;6362;50.208;9.182;2022-08-11T06:11:10;10.32;;;2.72;;
12593;SDS011;6362;50.208;9.182;2022-08-11T06:13:42;4.88;;;2.83;;
12593;SDS011;6362;50.208;9.182;2022-08-11T06:16:09;5.97;;;3.00;;
12593;SDS011;6362;50.208;9.182;2022-08-11T06:18:38;7.05;;;2.80;;
12593;SDS011;6362;50.208;9.182;2022-08-11T06:21:07;4.75;;;2.80;;
12593;SDS011;6362;50.208;9.182;2022-08-11T06:23:35;4.68;;;2.90;;
12593;SDS011;6362;50.208;9.182;2022-08-11T06:26:05;5.45;;;2.95;;
12593;SDS011;6362;50.208;9.182;2022-08-11T06:28:34;7.70;;;2.88;;
12593;SDS011;6362;50.208;9.182;2022-08-11T06:31:09;5.88;;;2.60;;
12593;SDS011;6362;50.208;9.182;2022-08-11T06:34:03;5.10;;;3.00;;
12593;SDS011;6362;50.208;9.182;2022-08-11T06:39:26;4.05;;;2.60;;
12593;SDS011;6362;50.208;9.182;2022-08-11T06:42:10;4.18;;;2.55;;
12593;SDS011;6362;50.208;9.182;2022-08-11T06:44:51;7.03;;;2.70;;
12593;SDS011;6362;50.208;9.182;2022-08-11T06:47:32;5.63;;;2.97;;
12593;SDS011;6362;50.208;9.182;2022-08-11T06:49:59;4.70;;;2.40;;
12593;SDS011;6362;50.208;9.182;2022-08-11T06:52:44;6.60;;;2.53;;
12593;SDS011;6362;50.208;9.182;2022-08-11T06:55:12;4.57;;;2.58;;
12593;SDS011;6362;50.208;9.182;2022-08-11T06:58:05;7.68;;;2.90;;
12593;SDS011;6362;50.208;9.182;2022-08-11T07:00:57;3.80;;;2.42;;
12593;SDS011;6362;50.208;9.182;2022-08-11T07:03:27;6.85;;;2.42;;
12593;SDS011;6362;50.208;9.182;2022-08-11T07:06:00;6.03;;;2.63;;
12593;SDS011;6362;50.208;9.182;2022-08-11T07:14:36;5.57;;;2.43;;
12593;SDS011;6362;50.208;9.182;2022-08-11T07:17:24;5.40;;;2.30;;
12593;SDS011;6362;50.208;9.182;2022-08-11T07:19:52;4.82;;;2.15;;
12593;SDS011;6362;50.208;9.182;2022-08-11T07:22:45;6.43;;;2.30;;
12593;SDS011;6362;50.208;9.182;2022-08-11T07:25:35;9.95;;;2.13;;
12593;SDS011;6362;50.208;9.182;2022-08-11T07:28:24;4.00;;;2.33;;
12593;SDS011;6362;50.208;9.182;2022-08-11T07:31:12;3.15;;;1.80;;
12593;SDS011;6362;50.208;9.182;2022-08-11T07:33:45;5.03;;;2.25;;
12593;SDS011;6362;50.208;9.182;2022-08-11T07:36:14;5.55;;;2.15;;
12593;SDS011;6362;50.208;9.182;2022-08-11T07:38:46;5.72;;;2.22;;
12593;SDS011;6362;50.208;9.182;2022-08-11T07:41:19;6.18;;;2.13;;
12593;SDS011;6362;50.208;9.182;2022-08-11T07:43:48;9.40;;;2.80;;
12593;SDS011;6362;50.208;9.182;2022-08-11T07:46:16;8.02;;;2.13;;
12593;SDS011;6362;50.208;9.182;2022-08-11T07:49:02;7.65;;;2.30;;
12593;SDS011;6362;50.208;9.182;2022-08-11T07:51:48;5.93;;;2.75;;
12593;SDS011;6362;50.208;9.182;2022-08-11T07:54:32;4.15;;;2.00;;
12593;SDS011;6362;50.208;9.182;2022-08-11T07:57:00;6.35;;;2.67;;
12593;SDS011;6362;50.208;9.182;2022-08-11T07:59:47;3.00;;;2.33;;
12593;SDS011;6362;50.208;9.182;2022-08-11T08:02:31;5.93;;;2.33;;
12593;SDS011;6362;50.208;9.182;2022-08-11T08:05:16;6.00;;;2.47;;
12593;SDS011;6362;50.208;9.182;2022-08-11T08:08:01;2.70;;;1.92;;
12593;SDS011;6362;50.208;9.182;2022-08-11T08:10:46;4.72;;;2.30;;
12593;SDS011;6362;50.208;9.182;2022-08-11T08:13:31;5.53;;;2.30;;
12593;SDS011;6362;50.208;9.182;2022-08-11T08:16:17;3.75;;;1.70;;
12593;SDS011;6362;50.208;9.182;2022-08-11T08:19:03;3.67;;;1.90;;
12593;SDS011;6362;50.208;9.182;2022-08-11T08:21:29;3.40;;;1.67;;
12593;SDS011;6362;50.208;9.182;2022-08-11T08:23:56;5.80;;;1.80;;
12593;SDS011;6362;50.208;9.182;2022-08-11T08:26:22;4.60;;;1.70;;
12593;SDS011;6362;50.208;9.182;2022-08-11T08:29:08;2.88;;;1.55;;
12593;SDS011;6362;50.208;9.182;2022-08-11T08:31:52;4.25;;;1.60;;
12593;SDS011;6362;50.208;9.182;2022-08-11T08:34:20;3.83;;;2.15;;
12593;SDS011;6362;50.208;9.182;2022-08-11T08:36:47;3.72;;;1.83;;
12593;SDS011;6362;50.208;9.182;2022-08-11T08:39:18;6.93;;;2.03;;
12593;SDS011;6362;50.208;9.182;2022-08-11T08:41:45;4.45;;;1.88;;
12593;SDS011;6362;50.208;9.182;2022-08-11T08:44:15;4.07;;;1.60;;
12593;SDS011;6362;50.208;9.182;2022-08-11T08:46:45;3.22;;;1.70;;
12593;SDS011;6362;50.208;9.182;2022-08-11T08:49:14;5.30;;;1.80;;
12593;SDS011;6362;50.208;9.182;2022-08-11T08:51:42;4.88;;;1.88;;
12593;SDS011;6362;50.208;9.182;2022-08-11T08:54:11;4.53;;;1.90;;
12593;SDS011;6362;50.208;9.182;2022-08-11T08:56:41;5.15;;;1.77;;
12593;SDS011;6362;50.208;9.182;2022-08-11T08:59:09;4.05;;;1.77;;
12593;SDS011;6362;50.208;9.182;2022-08-11T09:04:15;5.68;;;1.90;;
12593;SDS011;6362;50.208;9.182;2022-08-11T09:06:42;5.32;;;1.80;;
12593;SDS011;6362;50.208;9.182;2022-08-11T09:09:08;3.83;;;1.80;;
12593;SDS011;6362;50.208;9.182;2022-08-11T09:11:36;4.13;;;1.70;;
12593;SDS011;6362;50.208;9.182;2022-08-11T09:16:44;3.55;;;1.60;;
12593;SDS011;6362;50.208;9.182;2022-08-11T09:19:12;4.20;;;1.80;;
12593;SDS011;6362;50.208;9.182;2022-08-11T09:21:44;3.78;;;1.63;;
12593;SDS011;6362;50.208;9.182;2022-08-11T09:24:31;3.08;;;1.40;;
12593;SDS011;6362;50.208;9.182;2022-08-11T09:27:16;3.40;;;1.50;;
12593;SDS011;6362;50.208;9.182;2022-08-11T09:29:42;3.35;;;1.30;;
12593;SDS011;6362;50.208;9.182;2022-08-11T09:32:09;4.50;;;1.70;;
12593;SDS011;6362;50.208;9.182;2022-08-11T09:34:37;3.08;;;1.40;;
12593;SDS011;6362;50.208;9.182;2022-08-11T09:37:03;3.65;;;1.50;;
12593;SDS011;6362;50.208;9.182;2022-08-11T09:40:09;4.22;;;1.50;;
12593;SDS011;6362;50.208;9.182;2022-08-11T09:42:53;4.45;;;1.42;;
12593;SDS011;6362;50.208;9.182;2022-08-11T09:45:38;8.40;;;1.60;;
12593;SDS011;6362;50.208;9.182;2022-08-11T09:48:04;2.55;;;1.50;;
12593;SDS011;6362;50.208;9.182;2022-08-11T09:50:34;3.83;;;1.52;;
12593;SDS011;6362;50.208;9.182;2022-08-11T09:53:03;4.75;;;1.65;;
12593;SDS011;6362;50.208;9.182;2022-08-11T09:55:31;4.95;;;1.60;;
12593;SDS011;6362;50.208;9.182;2022-08-11T09:57:57;3.92;;;1.73;;
12593;SDS011;6362;50.208;9.182;2022-08-11T10:00:42;4.53;;;1.92;;
12593;SDS011;6362;50.208;9.182;2022-08-11T10:03:12;4.50;;;1.45;;
12593;SDS011;6362;50.208;9.182;2022-08-11T10:05:44;2.63;;;1.38;;
12593;SDS011;6362;50.208;9.182;2022-08-11T10:08:30;2.35;;;1.30;;
12593;SDS011;6362;50.208;9.182;2022-08-11T10:10:58;3.50;;;1.38;;
12593;SDS011;6362;50.208;9.182;2022-08-11T10:13:29;5.78;;;1.50;;
12593;SDS011;6362;50.208;9.182;2022-08-11T10:16:21;2.80;;;1.30;;
12593;SDS011;6362;50.208;9.182;2022-08-11T10:18:50;3.88;;;1.30;;
12593;SDS011;6362;50.208;9.182;2022-08-11T10:21:23;4.15;;;1.50;;
12593;SDS011;6362;50.208;9.182;2022-08-11T10:23:52;4.35;;;1.60;;
12593;SDS011;6362;50.208;9.182;2022-08-11T10:26:37;5.05;;;1.42;;
12593;SDS011;6362;50.208;9.182;2022-08-11T10:29:18;2.63;;;1.50;;
12593;SDS011;6362;50.208;9.182;2022-08-11T10:32:07;4.18;;;1.58;;
12593;SDS011;6362;50.208;9.182;2022-08-11T10:34:52;5.07;;;1.40;;
12593;SDS011;6362;50.208;9.182;2022-08-11T10:37:19;2.72;;;1.40;;
12593;SDS011;6362;50.208;9.182;2022-08-11T10:39:47;5.10;;;1.80;;
12593;SDS011;6362;50.208;9.182;2022-08-11T10:42:13;4.85;;;1.60;;
12593;SDS011;6362;50.208;9.182;2022-08-11T10:44:58;3.35;;;1.42;;
12593;SDS011;6362;50.208;9.182;2022-08-11T10:47:26;3.17;;;1.40;;
12593;SDS011;6362;50.208;9.182;2022-08-11T10:50:09;3.63;;;1.50;;
12593;SDS011;6362;50.208;9.182;2022-08-11T10:52:56;4.53;;;1.80;;
12593;SDS011;6362;50.208;9.182;2022-08-11T10:55:42;3.88;;;1.60;;
12593;SDS011;6362;50.208;9.182;2022-08-11T10:58:27;3.08;;;1.50;;
12593;SDS011;6362;50.208;9.182;2022-08-11T11:01:35;3.28;;;1.50;;
12593;SDS011;6362;50.208;9.182;2022-08-11T11:04:03;3.13;;;1.60;;
12593;SDS011;6362;50.208;9.182;2022-08-11T11:09:24;2.33;;;1.58;;
12593;SDS011;6362;50.208;9.182;2022-08-11T11:11:57;3.92;;;1.58;;
12593;SDS011;6362;50.208;9.182;2022-08-11T11:14:45;2.50;;;1.50;;
12593;SDS011;6362;50.208;9.182;2022-08-11T11:17:44;4.50;;;1.80;;
12593;SDS011;6362;50.208;9.182;2022-08-11T11:23:00;2.83;;;1.58;;
12593;SDS011;6362;50.208;9.182;2022-08-11T11:36:46;3.58;;;1.52;;
12593;SDS011;6362;50.208;9.182;2022-08-11T11:39:21;7.43;;;1.77;;
12593;SDS011;6362;50.208;9.182;2022-08-11T11:41:49;4.05;;;1.73;;
12593;SDS011;6362;50.208;9.182;2022-08-11T11:44:17;3.55;;;1.52;;
12593;SDS011;6362;50.208;9.182;2022-08-11T11:46:43;2.65;;;1.45;;
12593;SDS011;6362;50.208;9.182;2022-08-11T11:49:10;3.78;;;1.50;;
12593;SDS011;6362;50.208;9.182;2022-08-11T11:51:37;4.00;;;1.50;;
12593;SDS011;6362;50.208;9.182;2022-08-11T11:54:03;3.65;;;1.40;;
12593;SDS011;6362;50.208;9.182;2022-08-11T11:56:29;2.75;;;1.52;;
12593;SDS011;6362;50.208;9.182;2022-08-11T11:58:55;4.70;;;1.67;;
12593;SDS011;6362;50.208;9.182;2022-08-11T12:01:40;7.57;;;1.60;;
12593;SDS011;6362;50.208;9.182;2022-08-11T12:04:10;5.57;;;1.60;;
12593;SDS011;6362;50.208;9.182;2022-08-11T12:06:37;3.25;;;1.40;;
12593;SDS011;6362;50.208;9.182;2022-08-11T12:09:04;4.35;;;1.58;;
12593;SDS011;6362;50.208;9.182;2022-08-11T12:11:30;3.90;;;1.35;;
12593;SDS011;6362;50.208;9.182;2022-08-11T12:14:18;3.03;;;1.63;;
12593;SDS011;6362;50.208;9.182;2022-08-11T12:16:45;4.55;;;1.63;;
12593;SDS011;6362;50.208;9.182;2022-08-11T12:19:15;4.50;;;1.80;;
12593;SDS011;6362;50.208;9.182;2022-08-11T12:21:42;3.75;;;1.35;;
12593;SDS011;6362;50.208;9.182;2022-08-11T12:24:29;3.95;;;1.30;;
12593;SDS011;6362;50.208;9.182;2022-08-11T12:27:25;2.42;;;1.40;;
12593;SDS011;6362;50.208;9.182;2022-08-11T12:32:22;4.32;;;1.50;;
12593;SDS011;6362;50.208;9.182;2022-08-11T12:34:50;2.80;;;1.48;;
12593;SDS011;6362;50.208;9.182;2022-08-11T12:37:18;4.13;;;1.40;;
12593;SDS011;6362;50.208;9.182;2022-08-11T12:39:47;3.72;;;1.35;;
12593;SDS011;6362;50.208;9.182;2022-08-11T12:42:34;5.05;;;1.40;;
12593;SDS011;6362;50.208;9.182;2022-08-11T12:45:20;2.92;;;1.35;;
12593;SDS011;6362;50.208;9.182;2022-08-11T12:48:12;3.05;;;1.30;;
12593;SDS011;6362;50.208;9.182;2022-08-11T12:51:02;3.55;;;1.48;;
12593;SDS011;6362;50.208;9.182;2022-08-11T12:56:37;2.38;;;1.23;;
12593;SDS011;6362;50.208;9.182;2022-08-11T12:59:25;2.75;;;1.40;;
12593;SDS011;6362;50.208;9.182;2022-08-11T13:02:16;2.92;;;1.27;;
12593;SDS011;6362;50.208;9.182;2022-08-11T13:05:03;4.18;;;1.20;;
12593;SDS011;6362;50.208;9.182;2022-08-11T13:07:30;3.45;;;1.30;;
12593;SDS011;6362;50.208;9.182;2022-08-11T13:09:57;4.28;;;1.73;;
12593;SDS011;6362;50.208;9.182;2022-08-11T13:12:26;1.88;;;1.30;;
12593;SDS011;6362;50.208;9.182;2022-08-11T13:15:13;5.15;;;1.33;;
12593;SDS011;6362;50.208;9.182;2022-08-11T13:17:41;5.10;;;1.40;;
12593;SDS011;6362;50.208;9.182;2022-08-11T13:20:10;3.83;;;1.10;;
12593;SDS011;6362;50.208;9.182;2022-08-11T13:22:38;2.75;;;1.30;;
12593;SDS011;6362;50.208;9.182;2022-08-11T13:25:09;4.10;;;1.48;;
12593;SDS011;6362;50.208;9.182;2022-08-11T13:27:37;4.38;;;1.40;;
12593;SDS011;6362;50.208;9.182;2022-08-11T13:30:04;4.30;;;1.30;;
12593;SDS011;6362;50.208;9.182;2022-08-11T13:32:48;3.47;;;1.40;;
12593;SDS011;6362;50.208;9.182;2022-08-11T13:35:15;4.57;;;1.40;;
12593;SDS011;6362;50.208;9.182;2022-08-11T13:37:43;4.00;;;1.27;;
12593;SDS011;6362;50.208;9.182;2022-08-11T13:40:10;3.83;;;1.30;;
12593;SDS011;6362;50.208;9.182;2022-08-11T13:42:37;7.65;;;1.80;;
12593;SDS011;6362;50.208;9.182;2022-08-11T13:45:05;3.30;;;1.38;;
12593;SDS011;6362;50.208;9.182;2022-08-11T13:47:33;6.32;;;1.60;;
12593;SDS011;6362;50.208;9.182;2022-08-11T13:49:59;2.83;;;1.40;;
12593;SDS011;6362;50.208;9.182;2022-08-11T13:52:25;3.10;;;1.40;;
12593;SDS011;6362;50.208;9.182;2022-08-11T13:54:52;4.55;;;1.45;;
12593;SDS011;6362;50.208;9.182;2022-08-11T13:57:18;2.15;;;1.30;;
12593;SDS011;6362;50.208;9.182;2022-08-11T13:59:45;4.00;;;1.50;;
12593;SDS011;6362;50.208;9.182;2022-08-11T14:02:16;2.73;;;1.40;;
12593;SDS011;6362;50.208;9.182;2022-08-11T14:04:44;2.70;;;1.20;;
12593;SDS011;6362;50.208;9.182;2022-08-11T14:07:16;5.53;;;1.48;;
12593;SDS011;6362;50.208;9.182;2022-08-11T14:09:46;2.95;;;1.38;;
12593;SDS011;6362;50.208;9.182;2022-08-11T14:12:16;3.83;;;1.40;;
12593;SDS011;6362;50.208;9.182;2022-08-11T14:15:19;3.47;;;1.30;;
12593;SDS011;6362;50.208;9.182;2022-08-11T14:20:38;3.05;;;1.10;;
12593;SDS011;6362;50.208;9.182;2022-08-11T14:23:28;4.53;;;1.40;;
12593;SDS011;6362;50.208;9.182;2022-08-11T14:25:58;3.95;;;1.30;;
12593;SDS011;6362;50.208;9.182;2022-08-11T14:28:43;2.60;;;1.42;;
12593;SDS011;6362;50.208;9.182;2022-08-11T14:31:09;3.58;;;1.20;;
12593;SDS011;6362;50.208;9.182;2022-08-11T14:33:36;6.43;;;1.30;;
12593;SDS011;6362;50.208;9.182;2022-08-11T14:36:02;2.80;;;1.10;;
12593;SDS011;6362;50.208;9.182;2022-08-11T14:38:31;4.53;;;1.40;;
12593;SDS011;6362;50.208;9.182;2022-08-11T14:41:00;6.60;;;1.35;;
12593;SDS011;6362;50.208;9.182;2022-08-11T14:43:44;4.25;;;1.30;;
12593;SDS011;6362;50.208;9.182;2022-08-11T14:46:29;4.32;;;1.40;;
12593;SDS011;6362;50.208;9.182;2022-08-11T14:49:16;6.80;;;1.40;;
12593;SDS011;6362;50.208;9.182;2022-08-11T14:51:43;3.70;;;1.35;;
12593;SDS011;6362;50.208;9.182;2022-08-11T14:54:11;4.97;;;1.75;;
12593;SDS011;6362;50.208;9.182;2022-08-11T14:56:55;4.18;;;1.38;;
12593;SDS011;6362;50.208;9.182;2022-08-11T14:59:21;5.55;;;1.40;;
12593;SDS011;6362;50.208;9.182;2022-08-11T15:01:48;3.58;;;1.48;;
12593;SDS011;6362;50.208;9.182;2022-08-11T15:04:32;2.58;;;1.38;;
12593;SDS011;6362;50.208;9.182;2022-08-11T15:06:58;4.72;;;1.38;;
12593;SDS011;6362;50.208;9.182;2022-08-11T15:09:24;5.13;;;1.40;;
12593;SDS011;6362;50.208;9.182;2022-08-11T15:11:49;4.70;;;1.40;;
12593;SDS011;6362;50.208;9.182;2022-08-11T15:14:34;2.38;;;1.42;;
12593;SDS011;6362;50.208;9.182;2022-08-11T15:17:18;3.63;;;1.40;;
12593;SDS011;6362;50.208;9.182;2022-08-11T15:19:46;2.95;;;1.48;;
12593;SDS011;6362;50.208;9.182;2022-08-11T15:22:33;4.55;;;1.42;;
12593;SDS011;6362;50.208;9.182;2022-08-11T15:25:17;5.05;;;1.50;;
12593;SDS011;6362;50.208;9.182;2022-08-11T15:27:47;5.85;;;1.83;;
12593;SDS011;6362;50.208;9.182;2022-08-11T15:30:33;8.10;;;1.50;;
12593;SDS011;6362;50.208;9.182;2022-08-11T15:33:19;2.53;;;1.35;;
12593;SDS011;6362;50.208;9.182;2022-08-11T15:36:06;5.93;;;1.60;;
12593;SDS011;6362;50.208;9.182;2022-08-11T15:38:57;3.95;;;1.30;;
12593;SDS011;6362;50.208;9.182;2022-08-11T15:41:27;7.00;;;1.60;;
12593;SDS011;6362;50.208;9.182;2022-08-11T15:44:18;5.05;;;1.60;;
12593;SDS011;6362;50.208;9.182;2022-08-11T15:47:02;3.53;;;1.45;;
12593;SDS011;6362;50.208;9.182;2022-08-11T15:49:34;3.03;;;1.50;;
12593;SDS011;6362;50.208;9.182;2022-08-11T15:54:38;3.30;;;1.75;;
12593;SDS011;6362;50.208;9.182;2022-08-11T15:57:10;2.78;;;1.30;;
12593;SDS011;6362;50.208;9.182;2022-08-11T15:59:57;4.80;;;1.55;;
12593;SDS011;6362;50.208;9.182;2022-08-11T16:02:45;4.93;;;1.35;;
12593;SDS011;6362;50.208;9.182;2022-08-11T16:05:20;3.13;;;1.67;;
12593;SDS011;6362;50.208;9.182;2022-08-11T16:07:47;4.65;;;1.63;;
12593;SDS011;6362;50.208;9.182;2022-08-11T16:10:16;4.00;;;1.35;;
12593;SDS011;6362;50.208;9.182;2022-08-11T16:15:36;2.88;;;1.40;;
12593;SDS011;6362;50.208;9.182;2022-08-11T16:18:28;2.38;;;1.40;;
12593;SDS011;6362;50.208;9.182;2022-08-11T16:21:13;3.30;;;1.60;;
12593;SDS011;6362;50.208;9.182;2022-08-11T16:23:42;3.08;;;1.67;;
12593;SDS011;6362;50.208;9.182;2022-08-11T16:26:11;7.93;;;1.75;;
12593;SDS011;6362;50.208;9.182;2022-08-11T16:28:38;3.72;;;1.55;;
12593;SDS011;6362;50.208;9.182;2022-08-11T16:31:08;6.68;;;1.85;;
12593;SDS011;6362;50.208;9.182;2022-08-11T16:33:37;5.45;;;1.50;;
12593;SDS011;6362;50.208;9.182;2022-08-11T16:36:05;5.43;;;1.58;;
12593;SDS011;6362;50.208;9.182;2022-08-11T16:38:54;3.70;;;1.50;;
12593;SDS011;6362;50.208;9.182;2022-08-11T16:41:21;3.30;;;1.70;;
12593;SDS011;6362;50.208;9.182;2022-08-11T16:44:12;3.25;;;1.60;;
12593;SDS011;6362;50.208;9.182;2022-08-11T16:46:59;6.00;;;2.58;;
12593;SDS011;6362;50.208;9.182;2022-08-11T16:49:27;3.88;;;1.70;;
12593;SDS011;6362;50.208;9.182;2022-08-11T16:51:56;3.05;;;1.40;;
12593;SDS011;6362;50.208;9.182;2022-08-11T16:54:22;4.80;;;1.85;;
12593;SDS011;6362;50.208;9.182;2022-08-11T16:56:49;3.80;;;1.45;;
12593;SDS011;6362;50.208;9.182;2022-08-11T16:59:21;3.00;;;1.63;;
12593;SDS011;6362;50.208;9.182;2022-08-11T17:01:54;3.10;;;1.60;;
12593;SDS011;6362;50.208;9.182;2022-08-11T17:04:40;4.47;;;1.60;;
12593;SDS011;6362;50.208;9.182;2022-08-11T17:07:29;4.38;;;1.83;;
12593;SDS011;6362;50.208;9.182;2022-08-11T17:10:26;2.53;;;1.50;;
12593;SDS011;6362;50.208;9.182;2022-08-11T17:13:16;3.05;;;1.75;;
12593;SDS011;6362;50.208;9.182;2022-08-11T17:15:53;3.53;;;1.90;;
12593;SDS011;6362;50.208;9.182;2022-08-11T17:18:39;2.45;;;1.58;;
12593;SDS011;6362;50.208;9.182;2022-08-11T17:21:10;5.25;;;1.67;;
12593;SDS011;6362;50.208;9.182;2022-08-11T17:23:42;3.53;;;1.80;;
12593;SDS011;6362;50.208;9.182;2022-08-11T17:26:12;2.85;;;1.55;;
12593;SDS011;6362;50.208;9.182;2022-08-11T17:28:40;5.68;;;2.13;;
12593;SDS011;6362;50.208;9.182;2022-08-11T17:31:07;3.80;;;1.80;;
12593;SDS011;6362;50.208;9.182;2022-08-11T17:33:54;4.88;;;2.03;;
12593;SDS011;6362;50.208;9.182;2022-08-11T17:36:41;3.90;;;1.77;;
12593;SDS011;6362;50.208;9.182;2022-08-11T17:39:09;4.15;;;1.67;;
12593;SDS011;6362;50.208;9.182;2022-08-11T17:41:36;2.40;;;1.60;;
12593;SDS011;6362;50.208;9.182;2022-08-11T17:44:21;4.07;;;1.60;;
12593;SDS011;6362;50.208;9.182;2022-08-11T17:47:07;5.07;;;1.50;;
12593;SDS011;6362;50.208;9.182;2022-08-11T17:49:51;3.65;;;1.65;;
12593;SDS011;6362;50.208;9.182;2022-08-11T17:52:18;4.03;;;1.40;;
12593;SDS011;6362;50.208;9.182;2022-08-11T17:55:03;4.55;;;1.60;;
12593;SDS011;6362;50.208;9.182;2022-08-11T17:57:48;7.10;;;1.95;;
12593;SDS011;6362;50.208;9.182;2022-08-11T18:00:33;3.85;;;1.70;;
12593;SDS011;6362;50.208;9.182;2022-08-11T18:02:59;4.13;;;1.85;;
12593;SDS011;6362;50.208;9.182;2022-08-11T18:05:45;4.82;;;1.83;;
12593;SDS011;6362;50.208;9.182;2022-08-11T18:08:13;6.30;;;1.70;;
12593;SDS011;6362;50.208;9.182;2022-08-11T18:11:00;4.50;;;2.10;;
12593;SDS011;6362;50.208;9.182;2022-08-11T18:13:45;5.18;;;1.90;;
12593;SDS011;6362;50.208;9.182;2022-08-11T18:16:31;4.47;;;2.08;;
12593;SDS011;6362;50.208;9.182;2022-08-11T18:19:15;5.68;;;1.95;;
12593;SDS011;6362;50.208;9.182;2022-08-11T18:22:07;3.03;;;1.92;;
12593;SDS011;6362;50.208;9.182;2022-08-11T18:24:57;2.95;;;1.70;;
12593;SDS011;6362;50.208;9.182;2022-08-11T18:27:46;7.90;;;1.95;;
12593;SDS011;6362;50.208;9.182;2022-08-11T18:30:33;4.05;;;1.90;;
12593;SDS011;6362;50.208;9.182;2022-08-11T18:33:21;2.88;;;1.65;;
12593;SDS011;6362;50.208;9.182;2022-08-11T18:36:10;3.03;;;1.80;;
12593;SDS011;6362;50.208;9.182;2022-08-11T18:38:57;4.18;;;1.80;;
12593;SDS011;6362;50.208;9.182;2022-08-11T18:41:43;5.32;;;1.80;;
12593;SDS011;6362;50.208;9.182;2022-08-11T18:44:29;3.60;;;1.90;;
12593;SDS011;6362;50.208;9.182;2022-08-11T18:47:15;3.95;;;2.20;;
12593;SDS011;6362;50.208;9.182;2022-08-11T18:50:02;3.67;;;1.92;;
12593;SDS011;6362;50.208;9.182;2022-08-11T18:52:49;3.20;;;1.90;;
12593;SDS011;6362;50.208;9.182;2022-08-11T18:55:36;2.05;;;1.45;;
12593;SDS011;6362;50.208;9.182;2022-08-11T18:58:26;2.47;;;1.55;;
12593;SDS011;6362;50.208;9.182;2022-08-11T19:01:12;4.17;;;1.90;;
12593;SDS011;6362;50.208;9.182;2022-08-11T19:03:59;4.25;;;2.22;;
12593;SDS011;6362;50.208;9.182;2022-08-11T19:06:45;3.60;;;2.22;;
12593;SDS011;6362;50.208;9.182;2022-08-11T19:09:32;3.47;;;2.00;;
12593;SDS011;6362;50.208;9.182;2022-08-11T19:12:19;4.22;;;2.20;;
12593;SDS011;6362;50.208;9.182;2022-08-11T19:15:06;4.93;;;1.80;;
12593;SDS011;6362;50.208;9.182;2022-08-11T19:17:50;3.85;;;2.13;;
12593;SDS011;6362;50.208;9.182;2022-08-11T19:20:36;3.05;;;1.80;;
12593;SDS011;6362;50.208;9.182;2022-08-11T19:23:26;6.85;;;1.75;;
12593;SDS011;6362;50.208;9.182;2022-08-11T19:29:09;5.10;;;1.90;;
12593;SDS011;6362;50.208;9.182;2022-08-11T19:31:55;3.08;;;1.92;;
12593;SDS011;6362;50.208;9.182;2022-08-11T19:34:41;4.45;;;1.73;;
12593;SDS011;6362;50.208;9.182;2022-08-11T19:37:25;5.15;;;1.90;;
12593;SDS011;6362;50.208;9.182;2022-08-11T19:40:10;3.78;;;1.55;;
12593;SDS011;6362;50.208;9.182;2022-08-11T19:42:56;3.90;;;1.60;;
12593;SDS011;6362;50.208;9.182;2022-08-11T19:45:41;3.88;;;1.60;;
12593;SDS011;6362;50.208;9.182;2022-08-11T19:48:26;5.45;;;1.58;;
12593;SDS011;6362;50.208;9.182;2022-08-11T19:51:11;3.90;;;1.42;;
12593;SDS011;6362;50.208;9.182;2022-08-11T19:53:57;4.53;;;1.67;;
12593;SDS011;6362;50.208;9.182;2022-08-11T19:56:42;4.68;;;1.70;;
12593;SDS011;6362;50.208;9.182;2022-08-11T19:59:27;5.78;;;1.70;;
12593;SDS011;6362;50.208;9.182;2022-08-11T20:02:13;3.25;;;1.67;;
12593;SDS011;6362;50.208;9.182;2022-08-11T20:04:57;3.05;;;1.40;;
12593;SDS011;6362;50.208;9.182;2022-08-11T20:07:41;3.40;;;1.50;;